createdAt,value
2023-05-22T00:00:17.027Z,100.00
2023-05-22T00:02:45.099Z,100.00
2023-05-22T00:05:14.504Z,100.00
2023-05-22T00:07:43.784Z,100.00
2023-05-22T00:10:11.984Z,100.00
2023-05-22T00:12:39.833Z,100.00
2023-05-22T00:15:08.382Z,100.00
2023-05-22T00:17:36.599Z,100.00
2023-05-22T00:20:06.749Z,100.00
2023-05-22T00:22:35.346Z,100.00
2023-05-22T00:25:04.514Z,100.00
2023-05-22T00:27:32.180Z,100.00
2023-05-22T00:30:01.015Z,100.00
2023-05-22T00:32:28.657Z,100.00
2023-05-22T00:34:56.334Z,100.00
2023-05-22T00:37:25.383Z,100.00
2023-05-22T00:39:53.084Z,100.00
2023-05-22T00:42:22.224Z,100.00
2023-05-22T00:44:49.909Z,100.00
2023-05-22T00:47:17.526Z,100.00
2023-05-22T00:49:45.244Z,100.00
2023-05-22T00:52:14.040Z,100.00
2023-05-22T00:54:41.670Z,100.00
2023-05-22T00:57:09.292Z,100.00
2023-05-22T00:59:38.630Z,100.00
2023-05-22T01:02:06.833Z,100.00
2023-05-22T01:04:35.155Z,100.00
2023-05-22T01:07:02.850Z,100.00
2023-05-22T01:09:30.568Z,100.00
2023-05-22T01:12:02.993Z,100.00
2023-05-22T01:14:37.803Z,100.00
2023-05-22T01:17:16.162Z,100.00
2023-05-22T01:20:01.137Z,100.00
2023-05-22T01:22:43.234Z,100.00
2023-05-22T01:25:34.125Z,100.00
2023-05-22T01:28:22.451Z,100.00
2023-05-22T01:31:01.162Z,100.00
2023-05-22T01:33:34.410Z,100.00
2023-05-22T01:36:03.385Z,100.00
2023-05-22T01:38:32.268Z,100.00
2023-05-22T01:41:00.669Z,100.00
2023-05-22T01:43:28.512Z,100.00
2023-05-22T01:45:57.507Z,100.00
2023-05-22T01:48:25.133Z,100.00
2023-05-22T01:50:54.839Z,100.00
2023-05-22T01:53:30.960Z,100.00
2023-05-22T01:56:06.218Z,100.00
2023-05-22T01:58:46.125Z,100.00
2023-05-22T02:01:16.230Z,100.00
2023-05-22T02:03:46.609Z,100.00
2023-05-22T02:06:15.965Z,100.00
2023-05-22T02:08:44.939Z,100.00
2023-05-22T02:11:14.593Z,100.00
2023-05-22T02:13:42.670Z,100.00
2023-05-22T02:16:12.041Z,100.00
2023-05-22T02:18:41.666Z,100.00
2023-05-22T02:21:09.398Z,100.00
2023-05-22T02:23:37.857Z,100.00
2023-05-22T02:26:06.082Z,100.00
2023-05-22T02:28:33.919Z,100.00
2023-05-22T02:31:03.443Z,100.00
2023-05-22T02:33:31.137Z,100.00
2023-05-22T02:36:00.157Z,100.00
2023-05-22T02:38:27.738Z,100.00
2023-05-22T02:40:56.094Z,100.00
2023-05-22T02:43:23.668Z,100.00
2023-05-22T02:45:52.013Z,100.00
2023-05-22T02:48:19.671Z,100.00
2023-05-22T02:50:48.664Z,100.00
2023-05-22T02:53:17.953Z,100.00
2023-05-22T02:55:45.894Z,100.00
2023-05-22T02:58:14.493Z,100.00
2023-05-22T03:00:43.231Z,100.00
2023-05-22T03:03:11.783Z,100.00
2023-05-22T03:05:39.995Z,100.00
2023-05-22T03:08:08.707Z,100.00
2023-05-22T03:10:37.832Z,100.00
2023-05-22T03:13:05.609Z,100.00
2023-05-22T03:15:33.227Z,100.00
2023-05-22T03:18:09.578Z,100.00
2023-05-22T03:20:39.986Z,100.00
2023-05-22T03:23:07.766Z,100.00
2023-05-22T03:25:37.123Z,100.00
2023-05-22T03:28:05.225Z,100.00
2023-05-22T03:30:37.413Z,100.00
2023-05-22T03:33:17.221Z,100.00
2023-05-22T03:35:44.974Z,100.00
2023-05-22T03:38:12.808Z,100.00
2023-05-22T03:40:42.344Z,100.00
2023-05-22T03:43:10.969Z,100.00
2023-05-22T03:45:39.618Z,100.00
2023-05-22T03:48:07.405Z,100.00
2023-05-22T03:50:35.061Z,100.00
2023-05-22T03:53:02.616Z,100.00
2023-05-22T03:55:31.828Z,100.00
2023-05-22T03:58:01.166Z,100.00
2023-05-22T04:00:28.856Z,100.00
2023-05-22T04:02:58.622Z,100.00
2023-05-22T04:05:26.534Z,100.00
2023-05-22T04:07:54.197Z,100.00
2023-05-22T04:10:23.269Z,100.00
2023-05-22T04:12:51.251Z,100.00
2023-05-22T04:15:21.813Z,100.00
2023-05-22T04:17:49.908Z,100.00
2023-05-22T04:20:17.917Z,100.00
2023-05-22T04:22:46.410Z,100.00
2023-05-22T04:25:13.977Z,100.00
2023-05-22T04:27:41.561Z,100.00
2023-05-22T04:30:10.405Z,100.00
2023-05-22T04:32:41.199Z,100.00
2023-05-22T04:35:09.898Z,100.00
2023-05-22T04:37:37.463Z,100.00
2023-05-22T04:40:06.903Z,100.00
2023-05-22T04:42:35.280Z,100.00
2023-05-22T04:45:04.401Z,100.00
2023-05-22T04:47:32.552Z,100.00
2023-05-22T04:50:07.741Z,99.55
2023-05-22T04:52:35.935Z,99.36
2023-05-22T04:55:05.331Z,99.05
2023-05-22T04:57:33.781Z,99.12
2023-05-22T05:00:01.803Z,98.33
2023-05-22T05:02:32.430Z,98.10
2023-05-22T05:05:00.248Z,98.50
2023-05-22T05:07:29.687Z,97.25
2023-05-22T05:09:58.013Z,95.96
2023-05-22T05:12:25.596Z,96.30
2023-05-22T05:14:53.293Z,96.10
2023-05-22T05:17:22.233Z,96.44
2023-05-22T05:19:49.820Z,96.26
2023-05-22T05:22:17.417Z,95.99
2023-05-22T05:24:46.377Z,96.05
2023-05-22T05:27:14.066Z,94.90
2023-05-22T05:29:42.480Z,94.39
2023-05-22T05:32:18.274Z,93.02
2023-05-22T05:34:56.295Z,93.16
2023-05-22T05:37:41.621Z,93.34
2023-05-22T05:40:11.783Z,92.23
2023-05-22T05:42:43.981Z,91.23
2023-05-22T05:45:14.054Z,91.66
2023-05-22T05:47:42.799Z,91.75
2023-05-22T05:50:11.393Z,90.82
2023-05-22T05:52:39.810Z,90.90
2023-05-22T05:55:13.733Z,89.94
2023-05-22T05:57:42.694Z,88.94
2023-05-22T06:00:16.002Z,89.30
2023-05-22T06:02:43.781Z,89.37
2023-05-22T06:05:26.769Z,88.65
2023-05-22T06:08:01.536Z,86.97
2023-05-22T06:10:30.560Z,87.80
2023-05-22T06:13:02.991Z,87.37
2023-05-22T06:15:31.568Z,86.55
2023-05-22T06:17:59.263Z,86.16
2023-05-22T06:20:27.521Z,85.69
2023-05-22T06:22:55.200Z,85.64
2023-05-22T06:25:23.690Z,85.69
2023-05-22T06:27:52.753Z,86.91
2023-05-22T06:30:31.878Z,85.55
2023-05-22T06:33:06.391Z,84.27
2023-05-22T06:35:34.180Z,84.14
2023-05-22T06:38:01.969Z,84.42
2023-05-22T06:40:29.888Z,82.41
2023-05-22T06:43:04.548Z,84.61
2023-05-22T06:45:41.846Z,82.86
2023-05-22T06:48:29.451Z,82.00
2023-05-22T06:51:04.264Z,81.38
2023-05-22T06:53:32.094Z,79.36
2023-05-22T06:55:59.893Z,78.88
2023-05-22T06:58:44.841Z,78.51
2023-05-22T07:01:12.594Z,77.20
2023-05-22T07:03:48.147Z,77.78
2023-05-22T07:06:38.725Z,76.95
2023-05-22T07:09:07.704Z,76.99
2023-05-22T07:11:36.516Z,77.09
2023-05-22T07:14:05.823Z,75.72
2023-05-22T07:16:33.567Z,75.80
2023-05-22T07:19:03.270Z,76.05
2023-05-22T07:21:32.012Z,74.87
2023-05-22T07:24:00.091Z,75.04
2023-05-22T07:26:29.789Z,73.94
2023-05-22T07:29:05.972Z,73.05
2023-05-22T07:31:34.399Z,71.27
2023-05-22T07:34:03.176Z,69.91
2023-05-22T07:36:31.761Z,68.59
2023-05-22T07:38:59.453Z,69.40
2023-05-22T07:41:28.085Z,70.50
2023-05-22T07:43:56.182Z,67.98
2023-05-22T07:46:30.537Z,66.31
2023-05-22T07:49:07.693Z,64.68
2023-05-22T07:51:36.355Z,63.10
2023-05-22T07:54:03.926Z,62.48
2023-05-22T07:56:32.461Z,62.11
2023-05-22T07:59:01.189Z,62.05
2023-05-22T08:01:30.148Z,61.08
2023-05-22T08:03:57.879Z,60.47
2023-05-22T08:06:25.653Z,58.16
2023-05-22T08:08:53.543Z,58.81
2023-05-22T08:11:21.339Z,58.21
2023-05-22T08:13:49.128Z,59.61
2023-05-22T08:16:16.918Z,57.52
2023-05-22T08:18:46.020Z,57.00
2023-05-22T08:21:13.846Z,56.85
2023-05-22T08:23:41.552Z,55.92
2023-05-22T08:26:09.713Z,55.84
2023-05-22T08:28:41.849Z,54.55
2023-05-22T08:31:09.700Z,54.80
2023-05-22T08:33:37.410Z,53.00
2023-05-22T08:36:07.303Z,52.75
2023-05-22T08:38:35.091Z,51.92
2023-05-22T08:41:03.038Z,52.93
2023-05-22T08:43:30.646Z,52.46
2023-05-22T08:46:01.628Z,50.78
2023-05-22T08:48:31.782Z,52.11
2023-05-22T08:51:03.126Z,51.02
2023-05-22T08:53:34.506Z,49.55
2023-05-22T08:56:03.610Z,49.47
2023-05-22T08:58:33.589Z,49.02
2023-05-22T09:01:01.956Z,48.39
2023-05-22T09:03:32.714Z,47.58
2023-05-22T09:06:01.145Z,47.86
2023-05-22T09:08:29.521Z,47.55
2023-05-22T09:10:58.619Z,47.74
2023-05-22T09:13:28.378Z,47.08
2023-05-22T09:16:00.609Z,46.46
2023-05-22T09:18:29.584Z,45.88
2023-05-22T09:21:04.885Z,47.10
2023-05-22T09:23:35.267Z,45.87
2023-05-22T09:26:05.053Z,46.36
2023-05-22T09:28:35.531Z,46.66
2023-05-22T09:31:04.730Z,46.07
2023-05-22T09:33:33.160Z,46.16
2023-05-22T09:36:01.596Z,45.38
2023-05-22T09:38:30.877Z,45.85
2023-05-22T09:40:58.513Z,45.81
2023-05-22T09:43:27.680Z,46.07
2023-05-22T09:46:01.519Z,46.51
2023-05-22T09:48:29.598Z,45.56
2023-05-22T09:51:01.808Z,44.68
2023-05-22T09:53:30.976Z,46.48
2023-05-22T09:56:00.544Z,46.30
2023-05-22T09:58:34.533Z,45.39
2023-05-22T10:01:03.552Z,45.33
2023-05-22T10:03:32.728Z,45.10
2023-05-22T10:06:01.655Z,45.44
2023-05-22T10:08:29.831Z,45.38
2023-05-22T10:10:58.508Z,44.73
2023-05-22T10:13:26.598Z,43.57
2023-05-22T10:15:56.550Z,43.04
2023-05-22T10:18:25.803Z,43.77
2023-05-22T10:20:54.506Z,43.21
2023-05-22T10:23:23.683Z,43.21
2023-05-22T10:25:51.785Z,41.74
2023-05-22T10:28:25.818Z,42.65
2023-05-22T10:31:01.299Z,41.26
2023-05-22T10:34:10.207Z,41.15
2023-05-22T10:36:49.575Z,39.50
2023-05-22T10:39:31.273Z,40.72
2023-05-22T10:41:59.080Z,41.67
2023-05-22T10:44:26.788Z,41.70
2023-05-22T10:46:55.886Z,41.94
2023-05-22T10:49:24.266Z,42.52
2023-05-22T10:51:56.811Z,41.96
2023-05-22T10:54:40.096Z,42.70
2023-05-22T10:57:12.080Z,41.72
2023-05-22T10:59:39.801Z,42.28
2023-05-22T11:02:21.068Z,41.48
2023-05-22T11:04:49.036Z,41.01
2023-05-22T11:07:16.677Z,41.96
2023-05-22T11:09:47.517Z,40.76
2023-05-22T11:12:25.849Z,41.04
2023-05-22T11:14:55.096Z,40.77
2023-05-22T11:17:25.897Z,40.68
2023-05-22T11:20:05.936Z,39.79
2023-05-22T11:22:35.818Z,39.30
2023-05-22T11:25:08.819Z,39.88
2023-05-22T11:27:37.324Z,39.62
2023-05-22T11:30:05.817Z,39.44
2023-05-22T11:32:36.880Z,40.09
2023-05-22T11:35:05.328Z,39.91
2023-05-22T11:37:33.125Z,39.44
2023-05-22T11:40:05.848Z,40.17
2023-05-22T11:42:34.149Z,37.98
2023-05-22T11:45:02.283Z,38.34
2023-05-22T11:47:30.019Z,38.55
2023-05-22T11:49:59.797Z,38.38
2023-05-22T11:52:32.571Z,37.67
2023-05-22T11:55:00.813Z,38.21
2023-05-22T11:57:28.478Z,37.39
2023-05-22T11:59:56.155Z,36.90
2023-05-22T12:02:23.898Z,36.61
2023-05-22T12:04:55.292Z,36.22
2023-05-22T12:07:25.839Z,36.94
2023-05-22T12:09:53.539Z,36.36
2023-05-22T12:12:22.629Z,35.30
2023-05-22T12:14:50.792Z,37.31
2023-05-22T12:17:19.050Z,37.22
2023-05-22T12:19:48.083Z,36.88
2023-05-22T12:22:15.801Z,37.05
2023-05-22T12:24:46.911Z,38.01
2023-05-22T12:27:15.668Z,37.80
2023-05-22T12:29:44.181Z,37.68
2023-05-22T12:32:13.256Z,36.92
2023-05-22T12:34:44.745Z,37.38
2023-05-22T12:37:19.814Z,38.59
2023-05-22T12:39:56.747Z,37.77
2023-05-22T12:42:24.653Z,37.22
2023-05-22T12:44:54.427Z,36.70
2023-05-22T12:47:22.004Z,37.63
2023-05-22T12:49:49.537Z,36.71
2023-05-22T12:52:17.294Z,36.87
2023-05-22T12:54:44.966Z,37.30
2023-05-22T12:57:13.884Z,36.63
2023-05-22T12:59:41.480Z,36.97
2023-05-22T13:02:09.300Z,38.01
2023-05-22T13:04:36.916Z,36.99
2023-05-22T13:07:04.540Z,36.74
2023-05-22T13:09:32.093Z,36.94
2023-05-22T13:11:59.945Z,37.99
2023-05-22T13:14:29.069Z,38.07
2023-05-22T13:16:56.661Z,38.22
2023-05-22T13:19:24.243Z,38.00
2023-05-22T13:21:51.899Z,37.34
2023-05-22T13:24:19.511Z,36.95
2023-05-22T13:26:47.104Z,37.45
2023-05-22T13:29:15.115Z,37.89
2023-05-22T13:31:43.996Z,38.17
2023-05-22T13:34:11.670Z,38.15
2023-05-22T13:36:39.367Z,38.34
2023-05-22T13:39:07.006Z,37.99
2023-05-22T13:41:34.664Z,38.02
2023-05-22T13:44:02.317Z,38.66
2023-05-22T13:46:30.003Z,37.65
2023-05-22T13:48:58.959Z,37.79
2023-05-22T13:51:26.641Z,38.13
2023-05-22T13:53:54.324Z,37.86
2023-05-22T13:56:23.393Z,38.04
2023-05-22T13:58:50.958Z,38.62
2023-05-22T14:01:18.535Z,39.13
2023-05-22T14:03:46.158Z,38.42
2023-05-22T14:06:15.360Z,38.35
2023-05-22T14:08:43.196Z,38.03
2023-05-22T14:11:10.766Z,37.69
2023-05-22T14:13:38.366Z,37.71
2023-05-22T14:16:06.272Z,38.28
2023-05-22T14:18:33.877Z,38.44
2023-05-22T14:21:03.976Z,38.83
2023-05-22T14:23:33.641Z,39.20
2023-05-22T14:26:01.186Z,39.30
2023-05-22T14:28:28.787Z,40.01
2023-05-22T14:30:57.268Z,39.52
2023-05-22T14:33:24.978Z,38.84
2023-05-22T14:35:52.510Z,39.58
2023-05-22T14:38:20.078Z,39.26
2023-05-22T14:40:48.967Z,40.99
2023-05-22T14:43:16.571Z,40.90
2023-05-22T14:45:44.631Z,40.04
2023-05-22T14:48:12.635Z,40.80
2023-05-22T14:50:40.350Z,41.34
2023-05-22T14:53:08.003Z,41.64
2023-05-22T14:55:35.649Z,41.05
2023-05-22T14:58:04.872Z,42.17
2023-05-22T15:00:32.478Z,41.64
2023-05-22T15:03:02.701Z,42.06
2023-05-22T15:05:30.543Z,41.55
2023-05-22T15:07:58.618Z,42.37
2023-05-22T15:10:26.686Z,41.72
2023-05-22T15:12:54.596Z,41.84
2023-05-22T15:15:23.742Z,42.67
2023-05-22T15:17:51.440Z,43.43
2023-05-22T15:20:19.338Z,44.19
2023-05-22T15:22:46.926Z,44.29
2023-05-22T15:25:15.887Z,44.82
2023-05-22T15:27:43.689Z,44.74
2023-05-22T15:30:12.042Z,44.38
2023-05-22T15:32:41.097Z,44.70
2023-05-22T15:35:09.634Z,45.27
2023-05-22T15:37:37.339Z,46.43
2023-05-22T15:40:06.510Z,46.47
2023-05-22T15:42:34.198Z,46.11
2023-05-22T15:45:01.876Z,46.84
2023-05-22T15:47:30.020Z,48.54
2023-05-22T15:49:59.053Z,53.45
2023-05-22T15:52:26.618Z,56.49
2023-05-22T15:54:55.703Z,60.60
2023-05-22T15:57:24.647Z,64.37
2023-05-22T15:59:52.234Z,68.89
2023-05-22T16:02:20.028Z,74.22
2023-05-22T16:04:47.771Z,79.53
2023-05-22T16:07:18.765Z,81.83
2023-05-22T16:09:46.536Z,89.26
2023-05-22T16:12:14.280Z,92.16
2023-05-22T16:14:42.087Z,92.48
2023-05-22T16:17:09.712Z,94.11
2023-05-22T16:19:37.393Z,94.34
2023-05-22T16:22:05.565Z,96.78
2023-05-22T16:24:34.515Z,99.22
2023-05-22T16:27:02.223Z,100.00
2023-05-22T16:29:31.334Z,98.88
2023-05-22T16:31:59.005Z,98.19
2023-05-22T16:34:26.703Z,98.91
2023-05-22T16:36:54.251Z,98.28
2023-05-22T16:39:21.885Z,98.57
2023-05-22T16:41:52.921Z,100.00
2023-05-22T16:44:21.441Z,100.00
2023-05-22T16:46:49.730Z,100.00
2023-05-22T16:49:17.327Z,100.00
2023-05-22T16:51:44.962Z,100.00
2023-05-22T16:54:12.653Z,100.00
2023-05-22T16:56:40.224Z,100.00
2023-05-22T16:59:09.167Z,100.00
2023-05-22T17:01:37.193Z,100.00
2023-05-22T17:04:04.971Z,100.00
2023-05-22T17:06:32.555Z,99.97
2023-05-22T17:09:00.399Z,100.00
2023-05-22T17:11:28.012Z,100.00
2023-05-22T17:13:55.602Z,100.00
2023-05-22T17:16:24.518Z,100.00
2023-05-22T17:18:54.838Z,100.00
2023-05-22T17:21:22.744Z,100.00
2023-05-22T17:23:50.534Z,100.00
2023-05-22T17:26:18.177Z,100.00
2023-05-22T17:28:45.741Z,100.00
2023-05-22T17:31:13.350Z,100.00
2023-05-22T17:33:43.239Z,100.00
2023-05-22T17:36:10.821Z,100.00
2023-05-22T17:38:38.538Z,100.00
2023-05-22T17:41:06.304Z,100.00
2023-05-22T17:43:35.149Z,100.00
2023-05-22T17:46:03.102Z,100.00
2023-05-22T17:48:30.758Z,100.00
2023-05-22T17:51:00.295Z,100.00
2023-05-22T17:53:32.038Z,100.00
2023-05-22T17:55:59.751Z,100.00
2023-05-22T17:58:27.521Z,100.00
2023-05-22T18:00:55.360Z,100.00
2023-05-22T18:03:23.127Z,100.00
2023-05-22T18:05:51.544Z,100.00
2023-05-22T18:08:21.352Z,100.00
2023-05-22T18:10:49.202Z,100.00
2023-05-22T18:13:19.137Z,100.00
2023-05-22T18:15:48.137Z,100.00
2023-05-22T18:18:16.240Z,100.00
2023-05-22T18:20:44.309Z,100.00
2023-05-22T18:23:11.866Z,100.00
2023-05-22T18:25:40.817Z,100.00
2023-05-22T18:28:09.172Z,100.00
2023-05-22T18:30:36.828Z,100.00
2023-05-22T18:33:04.612Z,100.00
2023-05-22T18:35:32.290Z,100.00
2023-05-22T18:38:00.350Z,100.00
2023-05-22T18:40:28.002Z,100.00
2023-05-22T18:42:56.951Z,100.00
2023-05-22T18:45:24.490Z,100.00
2023-05-22T18:47:52.111Z,100.00
2023-05-22T18:50:21.657Z,100.00
2023-05-22T18:52:50.428Z,100.00
2023-05-22T18:55:18.012Z,100.00
2023-05-22T18:57:45.628Z,100.00
2023-05-22T19:00:15.047Z,100.00
2023-05-22T19:02:42.735Z,100.00
2023-05-22T19:05:10.971Z,100.00
2023-05-22T19:07:38.654Z,100.00
2023-05-22T19:10:08.374Z,100.00
2023-05-22T19:12:36.104Z,100.00
2023-05-22T19:15:04.583Z,100.00
2023-05-22T19:17:33.641Z,100.00
2023-05-22T19:20:03.175Z,100.00
2023-05-22T19:22:30.750Z,100.00
2023-05-22T19:24:58.403Z,100.00
2023-05-22T19:27:26.249Z,100.00
2023-05-22T19:29:53.863Z,100.00
2023-05-22T19:32:21.554Z,100.00
2023-05-22T19:34:50.768Z,100.00
2023-05-22T19:37:18.421Z,100.00
2023-05-22T19:39:45.975Z,100.00
2023-05-22T19:42:13.533Z,100.00
2023-05-22T19:44:41.133Z,100.00
2023-05-22T19:47:08.872Z,100.00
2023-05-22T19:49:37.274Z,100.00
2023-05-22T19:52:07.405Z,100.00
2023-05-22T19:54:35.568Z,100.00
2023-05-22T19:57:03.283Z,100.00
2023-05-22T19:59:30.887Z,100.00
2023-05-22T20:01:58.518Z,100.00
2023-05-22T20:04:26.185Z,100.00
2023-05-22T20:06:53.961Z,100.00
2023-05-22T20:09:22.907Z,100.00
2023-05-22T20:11:50.611Z,100.00
2023-05-22T20:14:18.241Z,100.00
2023-05-22T20:16:45.993Z,100.00
2023-05-22T20:19:14.833Z,100.00
2023-05-22T20:21:42.515Z,100.00
2023-05-22T20:24:17.293Z,100.00
2023-05-22T20:26:46.261Z,100.00
2023-05-22T20:29:15.326Z,100.00
2023-05-22T20:31:42.978Z,100.00
2023-05-22T20:34:11.636Z,100.00
2023-05-22T20:36:39.796Z,100.00
2023-05-22T20:39:08.481Z,100.00
2023-05-22T20:41:36.031Z,100.00
2023-05-22T20:44:05.034Z,100.00
2023-05-22T20:46:32.886Z,100.00
2023-05-22T20:49:02.763Z,100.00
2023-05-22T20:51:32.609Z,100.00
2023-05-22T20:54:01.007Z,100.00
2023-05-22T20:56:28.828Z,100.00
2023-05-22T20:58:56.632Z,100.00
2023-05-22T21:01:25.672Z,100.00
2023-05-22T21:03:56.205Z,100.00
2023-05-22T21:06:24.299Z,100.00
2023-05-22T21:08:53.966Z,100.00
2023-05-22T21:11:21.922Z,100.00
2023-05-22T21:13:49.912Z,100.00
2023-05-22T21:16:17.518Z,100.00
2023-05-22T21:18:46.532Z,100.00
2023-05-22T21:21:15.185Z,100.00
2023-05-22T21:23:43.199Z,100.00
2023-05-22T21:26:10.831Z,100.00
2023-05-22T21:28:38.569Z,100.00
2023-05-22T21:31:06.738Z,100.00
2023-05-22T21:33:34.340Z,100.00
2023-05-22T21:36:03.306Z,100.00
2023-05-22T21:38:30.999Z,100.00
2023-05-22T21:40:58.574Z,100.00
2023-05-22T21:43:26.300Z,100.00
2023-05-22T21:45:53.896Z,100.00
2023-05-22T21:48:21.463Z,100.00
2023-05-22T21:50:50.120Z,100.00
2023-05-22T21:53:19.085Z,100.00
2023-05-22T21:55:46.661Z,100.00
2023-05-22T21:58:14.510Z,100.00
2023-05-22T22:00:42.175Z,100.00
2023-05-22T22:03:09.871Z,100.00
2023-05-22T22:05:37.512Z,100.00
2023-05-22T22:08:05.755Z,100.00
2023-05-22T22:10:34.836Z,100.00
2023-05-22T22:13:02.488Z,100.00
2023-05-22T22:15:31.476Z,100.00
2023-05-22T22:18:02.281Z,100.00
2023-05-22T22:20:43.407Z,100.00
2023-05-22T22:23:12.445Z,100.00
2023-05-22T22:25:41.627Z,100.00
2023-05-22T22:28:09.267Z,100.00
2023-05-22T22:30:36.867Z,100.00
2023-05-22T22:33:04.523Z,100.00
2023-05-22T22:35:32.156Z,100.00
2023-05-22T22:37:59.770Z,100.00
2023-05-22T22:40:27.488Z,100.00
2023-05-22T22:42:56.423Z,100.00
2023-05-22T22:45:24.147Z,100.00
2023-05-22T22:47:52.992Z,100.00
2023-05-22T22:50:21.292Z,100.00
2023-05-22T22:52:48.905Z,100.00
2023-05-22T22:55:16.709Z,100.00
2023-05-22T22:57:47.033Z,100.00
2023-05-22T23:00:17.089Z,100.00
2023-05-22T23:02:44.787Z,100.00
2023-05-22T23:05:13.317Z,100.00
2023-05-22T23:07:40.903Z,100.00
2023-05-22T23:10:09.858Z,100.00
2023-05-22T23:12:37.433Z,100.00
2023-05-22T23:15:05.972Z,100.00
2023-05-22T23:17:34.859Z,100.00
2023-05-22T23:20:02.507Z,100.00
2023-05-22T23:22:30.132Z,100.00
2023-05-22T23:24:57.669Z,100.00
2023-05-22T23:27:25.933Z,100.00
2023-05-22T23:29:53.525Z,100.00
2023-05-22T23:32:22.240Z,100.00
2023-05-22T23:34:51.263Z,100.00
2023-05-22T23:37:18.818Z,100.00
2023-05-22T23:39:46.466Z,100.00
2023-05-22T23:42:14.143Z,100.00
2023-05-22T23:44:41.752Z,100.00
2023-05-22T23:47:09.633Z,100.00
2023-05-22T23:49:37.234Z,100.00
2023-05-22T23:52:06.654Z,100.00
2023-05-22T23:54:34.275Z,100.00
2023-05-22T23:57:01.879Z,100.00
2023-05-22T23:59:29.542Z,100.00
